Kliftrans — PCDB — position and weather

sailwx.info

Track history (hours):
 
Tides and Currents Weather Stations Pressure Air Temp Water Temp Dewpoint Dewpoint Depression Visibility Wind Speed Wind Dir Waves Ship Positions

Kliftrans

Last reported at 2018-May-24 17:30 UTC. Time now 2018-May-24 17:43 UTC.
Position N 51°57' E 004°05'.

Length 32 m; draft 6.4 m.

Type: Tug. MMSI: 244890607.

Date/timePositionNaut miles runAvg speedWind from/ knotsBaromVisibWave heightAir tempDewpointWater temp
2018-May-24 17:30N 51°57' E 004°05'0 0.0
2018-May-24 17:00N 51°57' E 004°05'0 0.0
2018-May-24 16:30N 51°57' E 004°05'0 0.2
2018-May-24 16:00N 51°57' E 004°05'3 5.8
2018-May-24 15:30N 51°57' E 003°60'0 0.4
2018-May-24 15:00N 51°57' E 003°60'0 0.0
2018-May-24 14:30N 51°57' E 003°60'0 1.0
2018-May-24 14:00N 51°57' E 004°00'1 1.7
2018-May-24 13:30N 51°58' E 003°60'2 0.4
2018-May-24 09:00N 51°58' E 004°03'0 0.1
2018-May-24 08:29N 51°58' E 004°03'0 0.0
2018-May-24 07:59N 51°58' E 004°03'0 0.0
2018-May-24 07:29N 51°58' E 004°03'0 0.0
2018-May-24 06:59N 51°58' E 004°03'0 0.0
2018-May-24 06:29N 51°58' E 004°03'0 0.0
2018-May-24 05:59N 51°58' E 004°03'0 0.0
2018-May-24 05:29N 51°58' E 004°03'0 0.0
2018-May-24 04:59N 51°58' E 004°03'0 0.0
2018-May-24 04:29N 51°58' E 004°03'0 0.0
2018-May-24 03:59N 51°58' E 004°03'0 0.0
2018-May-24 03:29N 51°58' E 004°03'0 0.0
2018-May-24 02:59N 51°58' E 004°03'0 0.0
2018-May-24 02:29N 51°58' E 004°03'0 0.0
2018-May-24 01:59N 51°58' E 004°03'0 0.0
2018-May-24 01:29N 51°58' E 004°03'0 0.0
2018-May-24 00:59N 51°58' E 004°03'0 0.0
2018-May-24 00:29N 51°58' E 004°03'0 0.0
2018-May-23 23:59N 51°58' E 004°03'0 0.0
2018-May-23 23:26N 51°58' E 004°03'0 0.0
2018-May-23 22:59N 51°58' E 004°03'0 0.0
2018-May-23 22:29N 51°58' E 004°03'0 0.0
2018-May-23 21:59N 51°58' E 004°03'0 0.0
2018-May-23 21:29N 51°58' E 004°03'0 0.0
2018-May-23 20:59N 51°58' E 004°03'0 0.0
2018-May-23 20:26N 51°58' E 004°03'0 0.0
2018-May-23 19:59N 51°58' E 004°03'0 0.0
2018-May-23 19:29N 51°58' E 004°03'0 0.0
2018-May-23 18:59N 51°58' E 004°03'0 0.0
2018-May-23 18:30N 51°58' E 004°03'0 0.0
2018-May-23 18:00N 51°58' E 004°03'0 0.0
2018-May-23 17:30N 51°58' E 004°03'0 0.0
2018-May-23 17:00N 51°58' E 004°03'0 0.0
2018-May-23 16:30N 51°58' E 004°03'0 0.0
2018-May-23 16:00N 51°58' E 004°03'0 0.0
2018-May-23 15:30N 51°58' E 004°03'1 3.0
2018-May-23 15:01N 51°58' E 004°05'1 1.0
2018-May-23 14:30N 51°58' E 004°04'0 0.0
2018-May-23 14:00N 51°58' E 004°04'1 1.7
2018-May-23 13:30N 51°58' E 004°06'0 0.0
2018-May-23 13:00N 51°58' E 004°06'0 0.0
2018-May-23 12:30N 51°58' E 004°06'0 0.0
2018-May-23 12:00N 51°58' E 004°06'0 0.0
2018-May-23 11:31N 51°58' E 004°06'0 0.0
2018-May-23 11:00N 51°58' E 004°06'0 0.0
2018-May-23 10:30N 51°58' E 004°06'0 0.0
2018-May-23 10:00N 51°58' E 004°06'0 0.0
2018-May-23 09:30N 51°58' E 004°06'0 0.0
2018-May-23 09:00N 51°58' E 004°06'0 0.0
2018-May-23 08:30N 51°58' E 004°06'1 2.0
2018-May-23 08:00N 51°57' E 004°05'0 0.0
2018-May-23 07:30N 51°57' E 004°05'0 0.0
2018-May-23 07:00N 51°57' E 004°05'0 0.0
2018-May-23 06:30N 51°57' E 004°05'0 0.0
2018-May-23 06:00N 51°57' E 004°05'0 0.0
2018-May-23 05:30N 51°57' E 004°05'0 0.0
2018-May-23 05:00N 51°57' E 004°05'0 0.0
2018-May-23 04:30N 51°57' E 004°05'0 0.0
2018-May-23 04:00N 51°57' E 004°05'0 0.0
2018-May-23 03:30N 51°57' E 004°05'0 0.0
2018-May-23 03:00N 51°57' E 004°05'0 0.0
2018-May-23 02:30N 51°57' E 004°05'0 0.0
2018-May-23 02:00N 51°57' E 004°05'0 0.0
2018-May-23 01:30N 51°57' E 004°05'0 0.0
2018-May-23 01:00N 51°57' E 004°05'0 0.0
2018-May-23 00:30N 51°57' E 004°05'0 0.0
2018-May-23 00:00N 51°57' E 004°05'0 0.0
2018-May-22 23:30N 51°57' E 004°05'0 0.0
2018-May-22 23:00N 51°57' E 004°05'0 0.0
2018-May-22 22:30N 51°57' E 004°05'0 0.0
2018-May-22 22:00N 51°57' E 004°05'0 0.0
2018-May-22 21:30N 51°57' E 004°05'0 0.0
2018-May-22 21:00N 51°57' E 004°05'0 0.0
2018-May-22 20:30N 51°57' E 004°05'0 0.0
2018-May-22 20:00N 51°57' E 004°05'0 0.0
2018-May-22 19:30N 51°57' E 004°05'0 0.6
2018-May-22 19:00N 51°57' E 004°05'2 3.3
2018-May-22 18:30N 51°58' E 004°02'2 3.7
2018-May-22 18:00N 51°57' E 004°05'0 0.0
2018-May-22 17:30N 51°57' E 004°05'0 0.0
2018-May-22 17:00N 51°57' E 004°05'0 0.0
2018-May-22 16:30N 51°57' E 004°05'0 0.0
2018-May-22 16:00N 51°57' E 004°05'0 0.0
2018-May-22 15:30N 51°57' E 004°05'0 0.0
2018-May-22 15:00N 51°57' E 004°05'0 0.0
2018-May-22 14:30N 51°57' E 004°05'0 0.0
2018-May-22 14:00N 51°57' E 004°05'0 0.0
2018-May-22 13:30N 51°57' E 004°05'0 0.0
2018-May-22 13:00N 51°57' E 004°05'0 0.0
2018-May-22 12:30N 51°57' E 004°05'0 0.0
2018-May-22 12:00N 51°57' E 004°05'0 0.0
2018-May-22 11:30N 51°57' E 004°05'0 0.0
2018-May-22 11:00N 51°57' E 004°05'0 0.0
2018-May-22 10:30N 51°57' E 004°05'0 0.0
2018-May-22 10:00N 51°57' E 004°05'0 0.0
2018-May-22 09:30N 51°57' E 004°05'2 3.6
2018-May-22 09:00N 51°58' E 004°02'0 0.6
2018-May-22 08:31N 51°58' E 004°02'2 4.5
2018-May-22 07:59N 51°58' E 004°06'0 0.0
2018-May-22 07:30N 51°58' E 004°06'0 0.0
2018-May-22 07:00N 51°58' E 004°06'0 0.0
2018-May-22 06:30N 51°58' E 004°06'0 0.0
2018-May-22 06:00N 51°58' E 004°06'0 0.0
2018-May-22 05:30N 51°58' E 004°06'0 0.0
2018-May-22 05:00N 51°58' E 004°06'0 0.0
2018-May-22 04:30N 51°58' E 004°06'0 0.0
2018-May-22 04:00N 51°58' E 004°06'0 0.0
2018-May-22 03:30N 51°58' E 004°06'0 0.0
2018-May-22 03:00N 51°58' E 004°06'0 0.0
2018-May-22 02:30N 51°58' E 004°06'0 0.0
2018-May-22 02:00N 51°58' E 004°06'0 0.0
2018-May-22 01:30N 51°58' E 004°06'0 0.0
2018-May-22 01:00N 51°58' E 004°06'0 0.0
2018-May-22 00:30N 51°58' E 004°06'0 0.0
2018-May-22 00:00N 51°58' E 004°06'0 0.0
2018-May-21 22:30N 51°58' E 004°06'0 0.0
2018-May-21 22:00N 51°58' E 004°06'3 5.1
2018-May-21 21:30N 51°58' E 004°02'3 5.0
2018-May-21 21:00N 51°58' E 004°06'0 0.1
2018-May-21 20:29N 51°58' E 004°06'0 0.0
2018-May-21 19:56N 51°58' E 004°06'0 0.0
2018-May-21 19:29N 51°58' E 004°06'0 0.0
2018-May-21 18:59N 51°58' E 004°06'0 0.0
2018-May-21 18:26N 51°58' E 004°06'0 0.0
2018-May-21 17:59N 51°58' E 004°06'1 1.3
2018-May-21 17:30N 51°58' E 004°05'1 2.0
2018-May-21 17:00N 51°58' E 004°03'1 2.7
2018-May-21 16:31N 51°59' E 004°04'1 2.5
2018-May-21 15:57N 51°58' E 004°06'0 0.0
2018-May-21 15:30N 51°58' E 004°06'0 0.0
2018-May-21 15:00N 51°58' E 004°06'0 0.0
2018-May-21 14:30N 51°58' E 004°06'0 0.0
2018-May-21 14:00N 51°58' E 004°06'0 0.0
2018-May-21 13:30N 51°58' E 004°06'0 0.0
2018-May-21 13:00N 51°58' E 004°06'0 0.0
2018-May-21 12:30N 51°58' E 004°06'0 0.0
2018-May-21 12:00N 51°58' E 004°06'0 0.0
2018-May-21 11:30N 51°58' E 004°06'0 0.0
2018-May-21 11:00N 51°58' E 004°06'0 0.0
2018-May-21 10:30N 51°58' E 004°06'0 0.0
2018-May-21 10:00N 51°58' E 004°06'0 0.0
2018-May-21 09:30N 51°58' E 004°06'0 0.0
2018-May-21 09:00N 51°58' E 004°06'0 0.0
2018-May-21 08:30N 51°58' E 004°06'0 0.0
2018-May-21 08:00N 51°58' E 004°06'0 0.0
2018-May-21 07:30N 51°58' E 004°06'0 0.0
2018-May-21 07:00N 51°58' E 004°06'0 0.0
2018-May-21 06:30N 51°58' E 004°06'0 0.0
2018-May-21 06:00N 51°58' E 004°06'0 0.0
2018-May-21 05:30N 51°58' E 004°06'0 0.0
2018-May-21 05:00N 51°58' E 004°06'0 0.0
2018-May-21 04:30N 51°58' E 004°06'0 0.0
2018-May-21 04:00N 51°58' E 004°06'0 0.0
2018-May-21 03:30N 51°58' E 004°06'0 0.0
2018-May-21 03:00N 51°58' E 004°06'1 2.9
2018-May-21 02:30N 51°58' E 004°03'1 2.1
2018-May-21 02:00N 51°58' E 004°02'2 4.1
2018-May-21 01:30N 51°58' E 004°05'0 0.8
2018-May-21 01:00N 51°58' E 004°05'1 1.3
2018-May-21 00:30N 51°58' E 004°06'0 0.0
2018-May-21 00:00N 51°58' E 004°06'3 5.5
2018-May-20 23:30N 51°57' E 004°10'2 4.8
2018-May-20 23:00N 51°55' E 004°13'0 0.0
2018-May-20 22:30N 51°55' E 004°13'0 0.0
2018-May-20 22:00N 51°55' E 004°13'1 1.2
2018-May-20 21:30N 51°56' E 004°12'3 6.8
2018-May-20 21:00N 51°58' E 004°08'3 5.3
2018-May-20 20:30N 51°58' E 004°03'2 4.5
2018-May-20 20:00N 51°58' E 003°60'1 1.4
2018-May-20 19:30N 51°58' E 004°00'0 0.4
2018-May-20 19:00N 51°57' E 004°00'0 0.0
2018-May-20 18:30N 51°57' E 004°00'0 0.0
2018-May-20 18:00N 51°57' E 004°00'0 0.6
2018-May-20 17:30N 51°57' E 004°00'1 2.9
2018-May-20 17:00N 51°58' E 004°01'2 4.5
2018-May-20 16:30N 51°58' E 004°05'0 0.9
2018-May-20 16:00N 51°58' E 004°04'0 0.1
2018-May-20 15:30N 51°58' E 004°04'0 0.8
2018-May-20 15:00N 51°58' E 004°05'1 2.7
2018-May-20 14:30N 51°59' E 004°04'0 1.0
2018-May-20 14:00N 51°59' E 004°04'1 1.8
2018-May-20 13:24N 51°58' E 004°06'0 0.0
2018-May-20 13:00N 51°58' E 004°06'0 0.0
2018-May-20 12:30N 51°58' E 004°06'0 0.0
2018-May-20 12:00N 51°58' E 004°06'0 0.0
2018-May-20 11:27N 51°58' E 004°06'0 0.0
2018-May-20 10:57N 51°58' E 004°06'0 0.0
2018-May-20 10:27N 51°58' E 004°06'0 0.0
2018-May-20 10:00N 51°58' E 004°06'0 0.0
2018-May-20 09:30N 51°58' E 004°06'0 0.0
2018-May-20 09:00N 51°58' E 004°06'0 0.0
2018-May-20 08:27N 51°58' E 004°06'0 0.0
2018-May-20 08:00N 51°58' E 004°06'0 0.0
2018-May-20 07:30N 51°58' E 004°06'0 0.0
2018-May-20 07:00N 51°58' E 004°06'0 0.0
2018-May-20 06:27N 51°58' E 004°06'0 0.0
2018-May-20 06:00N 51°58' E 004°06'0 0.0
2018-May-20 05:30N 51°58' E 004°06'0 0.0
2018-May-20 05:00N 51°58' E 004°06'0 0.0
2018-May-20 04:30N 51°58' E 004°06'0 0.0
2018-May-20 04:00N 51°58' E 004°06'0 0.0
2018-May-20 03:30N 51°58' E 004°06'0 0.0
2018-May-20 03:00N 51°58' E 004°06'0 0.0
2018-May-20 02:27N 51°58' E 004°06'0 0.0
2018-May-20 02:00N 51°58' E 004°06'0 0.0
2018-May-20 01:30N 51°58' E 004°06'0 0.0
2018-May-20 01:00N 51°58' E 004°06'0 0.0
2018-May-20 00:30N 51°58' E 004°06'0 0.0
2018-May-20 00:00N 51°58' E 004°06'0 0.0
2018-May-19 23:30N 51°58' E 004°06'0 0.0
2018-May-19 23:00N 51°58' E 004°06'0 0.0
2018-May-19 22:30N 51°58' E 004°06'0 0.0
2018-May-19 21:58N 51°58' E 004°06'2 3.5
2018-May-19 21:31N 51°58' E 004°03'0 0.1
2018-May-19 21:00N 51°58' E 004°03'0 0.0
2018-May-19 20:30N 51°58' E 004°03'3 5.2
2018-May-19 20:00N 51°58' E 004°07'4 8.4
2018-May-19 19:30N 51°55' E 004°13'1 1.0
2018-May-19 19:01N 51°55' E 004°13'1 2.5
2018-May-19 18:30N 51°56' E 004°12'3 5.2
2018-May-19 18:01N 51°57' E 004°08'2 3.8
2018-May-19 17:25N 51°57' E 004°05'0 0.0
2018-May-19 16:58N 51°57' E 004°05'0 0.0
2018-May-19 16:28N 51°57' E 004°05'0 0.0
2018-May-19 15:58N 51°57' E 004°05'0 0.0
2018-May-19 15:28N 51°57' E 004°05'0 0.0
2018-May-19 14:58N 51°57' E 004°05'0 0.0
2018-May-19 14:28N 51°57' E 004°05'0 0.0
2018-May-19 13:58N 51°57' E 004°05'0 0.0
2018-May-19 13:25N 51°57' E 004°05'0 0.0
2018-May-19 12:58N 51°57' E 004°05'0 0.0
2018-May-19 12:28N 51°57' E 004°05'0 0.0
2018-May-19 11:58N 51°57' E 004°05'0 0.0
2018-May-19 11:28N 51°57' E 004°05'0 0.0
2018-May-19 10:58N 51°57' E 004°05'0 0.0
2018-May-19 10:28N 51°57' E 004°05'0 0.0
2018-May-19 09:58N 51°57' E 004°05'0 0.0
2018-May-19 09:28N 51°57' E 004°05'0 0.0
2018-May-19 08:58N 51°57' E 004°05'0 0.0
2018-May-19 08:28N 51°57' E 004°05'0 0.0
2018-May-19 07:58N 51°57' E 004°05'0 0.0
2018-May-19 07:28N 51°57' E 004°05'0 0.0
2018-May-19 06:58N 51°57' E 004°05'0 0.0
2018-May-19 06:28N 51°57' E 004°05'0 0.0
2018-May-19 05:55N 51°57' E 004°05'0 0.0
2018-May-19 05:28N 51°57' E 004°05'0 0.0
2018-May-19 04:55N 51°57' E 004°05'0 0.0
2018-May-19 04:28N 51°57' E 004°05'0 0.0
2018-May-19 03:58N 51°57' E 004°05'0 0.0
2018-May-19 03:28N 51°57' E 004°05'0 0.0
2018-May-19 02:58N 51°57' E 004°05'0 0.0
2018-May-19 02:25N 51°57' E 004°05'0 0.0
2018-May-19 01:58N 51°57' E 004°05'0 0.0
2018-May-19 01:25N 51°57' E 004°05'0 0.0
2018-May-19 00:58N 51°57' E 004°05'0 0.0
2018-May-19 00:28N 51°57' E 004°05'0 0.0
2018-May-18 23:58N 51°57' E 004°05'0 0.0
2018-May-18 23:28N 51°57' E 004°05'0 0.3
2018-May-18 23:00N 51°57' E 004°05'1 2.7
2018-May-18 22:30N 51°58' E 004°06'0 0.1
2018-May-18 22:00N 51°58' E 004°06'0 0.4
2018-May-18 21:30N 51°58' E 004°06'1 2.4
2018-May-18 21:00N 51°59' E 004°04'1 2.1
2018-May-18 20:27N 51°58' E 004°06'0 0.0
2018-May-18 20:00N 51°58' E 004°06'0 0.0
2018-May-18 19:30N 51°58' E 004°06'0 0.0
2018-May-18 19:00N 51°58' E 004°06'0 0.0
2018-May-18 18:30N 51°58' E 004°06'0 0.0
2018-May-18 18:00N 51°58' E 004°06'0 0.0
2018-May-18 17:30N 51°58' E 004°06'0 0.0
2018-May-18 17:00N 51°58' E 004°06'0 0.0
2018-May-18 16:30N 51°58' E 004°06'0 0.0
2018-May-18 16:00N 51°58' E 004°06'0 0.0
2018-May-18 15:27N 51°58' E 004°06'0 0.0
2018-May-18 15:00N 51°58' E 004°06'0 0.0
2018-May-18 14:30N 51°58' E 004°06'0 0.0
2018-May-18 13:54N 51°58' E 004°06'0 0.0
2018-May-18 13:30N 51°58' E 004°06'0 0.0
2018-May-18 13:00N 51°58' E 004°06'0 0.0
2018-May-18 12:27N 51°58' E 004°06'0 0.0
2018-May-18 12:00N 51°58' E 004°06'0 0.0
2018-May-18 11:30N 51°58' E 004°06'0 0.0
2018-May-18 11:00N 51°58' E 004°06'0 0.0
2018-May-18 10:30N 51°58' E 004°06'0 0.0
2018-May-18 09:48N 51°58' E 004°06'0 0.0
2018-May-18 09:30N 51°58' E 004°06'0 0.0
2018-May-18 09:00N 51°58' E 004°06'0 0.0
2018-May-18 08:27N 51°58' E 004°06'0 0.0
2018-May-18 08:00N 51°58' E 004°06'2 3.2
2018-May-18 07:30N 51°58' E 004°03'2 4.0
2018-May-18 07:00N 51°57' E 004°00'0 0.2
2018-May-18 06:30N 51°57' E 004°00'0 0.0
2018-May-18 06:00N 51°57' E 004°00'0 0.5
2018-May-18 05:30N 51°57' E 003°60'0 0.0
2018-May-18 05:00N 51°57' E 003°60'0 0.0
2018-May-18 04:30N 51°57' E 003°60'0 0.8
2018-May-18 04:00N 51°57' E 003°59'1 2.5
2018-May-18 03:30N 51°58' E 003°60'3 6.1
2018-May-18 03:01N 51°58' E 004°05'1 1.1
2018-May-18 02:30N 51°58' E 004°06'0 0.0
2018-May-18 01:59N 51°58' E 004°06'0 0.0
2018-May-18 01:26N 51°58' E 004°06'0 0.0
2018-May-18 00:59N 51°58' E 004°06'0 0.0
2018-May-18 00:26N 51°58' E 004°06'0 0.0
2018-May-17 23:59N 51°58' E 004°06'0 0.0
2018-May-17 23:29N 51°58' E 004°06'0 0.0
2018-May-17 22:59N 51°58' E 004°06'0 0.0
2018-May-17 22:29N 51°58' E 004°06'0 0.0
2018-May-17 21:59N 51°58' E 004°06'0 0.0
2018-May-17 21:29N 51°58' E 004°06'0 0.0
2018-May-17 20:59N 51°58' E 004°06'0 0.0
2018-May-17 20:29N 51°58' E 004°06'0 0.0
2018-May-17 19:59N 51°58' E 004°06'0 0.0
2018-May-17 19:29N 51°58' E 004°06'0 0.0
2018-May-17 18:59N 51°58' E 004°06'0 0.0
2018-May-17 18:29N 51°58' E 004°06'0 0.0
2018-May-17 17:59N 51°58' E 004°06'0 0.0
2018-May-17 17:29N 51°58' E 004°06'0 0.0
2018-May-17 16:59N 51°58' E 004°06'0 0.0
2018-May-17 16:29N 51°58' E 004°06'1 3.0
2018-May-17 16:01N 51°57' E 004°04'1 1.7
2018-May-17 15:30N 51°57' E 004°03'1 1.3
2018-May-17 15:00N 51°57' E 004°04'2 3.1
2018-May-17 14:30N 51°58' E 004°06'0 0.0
2018-May-17 14:01N 51°58' E 004°06'0 0.0
2018-May-17 13:31N 51°58' E 004°06'0 0.0
2018-May-17 13:00N 51°58' E 004°06'0 0.0
2018-May-17 12:31N 51°58' E 004°06'0 0.0
2018-May-17 12:00N 51°58' E 004°06'0 0.0
2018-May-17 11:30N 51°58' E 004°06'0 0.0
2018-May-17 11:00N 51°58' E 004°06'0 0.0
2018-May-17 10:30N 51°58' E 004°06'2 4.9
2018-May-17 10:01N 51°56' E 004°03'0 0.0
2018-May-17 09:30N 51°56' E 004°03'0 0.0
2018-May-17 09:01N 51°56' E 004°03'0 0.4
2018-May-17 08:31N 51°56' E 004°03'1 2.8
2018-May-17 08:01N 51°57' E 004°05'1 1.8
2018-May-17 07:29N 51°58' E 004°06'0 0.0
2018-May-17 06:59N 51°58' E 004°06'0 0.0
2018-May-17 06:29N 51°58' E 004°06'0 0.0
2018-May-17 05:59N 51°58' E 004°06'0 0.0
2018-May-17 05:29N 51°58' E 004°06'0 0.0
2018-May-17 04:59N 51°58' E 004°06'0 0.0
2018-May-17 04:29N 51°58' E 004°06'0 0.0
2018-May-17 03:57N 51°58' E 004°06'1 2.6
2018-May-17 03:30N 51°58' E 004°08'0 0.6
2018-May-17 03:01N 51°58' E 004°08'1 2.3
2018-May-17 02:29N 51°58' E 004°06'0 0.0
2018-May-17 01:59N 51°58' E 004°06'0 0.0
2018-May-17 01:29N 51°58' E 004°06'0 0.0
2018-May-17 00:59N 51°58' E 004°06'0 0.0
2018-May-17 00:29N 51°58' E 004°06'0 0.0
2018-May-16 23:59N 51°58' E 004°06'0 0.0
2018-May-16 23:29N 51°58' E 004°06'0 0.0
2018-May-16 22:59N 51°58' E 004°06'0 0.0
2018-May-16 22:26N 51°58' E 004°06'0 0.0
2018-May-16 21:59N 51°58' E 004°06'0 0.0
2018-May-16 21:29N 51°58' E 004°06'0 0.0
2018-May-16 20:56N 51°58' E 004°06'0 0.0
2018-May-16 20:29N 51°58' E 004°06'0 0.0
2018-May-16 19:59N 51°58' E 004°06'0 0.0
2018-May-16 19:30N 51°58' E 004°06'0 0.0
2018-May-16 19:00N 51°58' E 004°06'0 0.0
2018-May-16 18:30N 51°58' E 004°06'0 0.0
2018-May-16 18:01N 51°58' E 004°06'0 0.0
2018-May-16 17:30N 51°58' E 004°06'0 0.0
2018-May-16 17:00N 51°58' E 004°06'0 0.0
2018-May-16 16:30N 51°58' E 004°06'0 0.0
2018-May-16 16:00N 51°58' E 004°06'0 0.0
2018-May-16 15:31N 51°58' E 004°06'0 0.0
2018-May-16 15:00N 51°58' E 004°06'0 0.0
2018-May-16 14:30N 51°58' E 004°06'0 0.0
2018-May-16 14:00N 51°58' E 004°06'0 0.0
2018-May-16 13:30N 51°58' E 004°06'0 0.0
2018-May-16 13:00N 51°58' E 004°06'0 0.0
2018-May-16 12:30N 51°58' E 004°06'0 0.0
2018-May-16 11:59N 51°58' E 004°06'0 0.0
2018-May-16 11:30N 51°58' E 004°06'0 0.0
2018-May-16 11:00N 51°58' E 004°06'0 0.4
2018-May-16 10:31N 51°58' E 004°05'1 2.0
2018-May-16 10:00N 51°57' E 004°05'2 3.0
2018-May-16 09:31N 51°57' E 004°02'2 4.2
2018-May-16 09:00N 51°58' E 004°06'0 0.0
2018-May-16 08:30N 51°58' E 004°06'2 4.0
2018-May-16 08:00N 51°58' E 004°03'0 0.9
2018-May-16 07:30N 51°58' E 004°03'1 2.0
2018-May-16 07:00N 51°59' E 004°03'2 3.7
2018-May-16 06:30N 51°58' E 004°06'0 0.0
2018-May-16 06:01N 51°58' E 004°06'0 0.0
2018-May-16 05:30N 51°58' E 004°06'0 0.8
2018-May-16 05:00N 51°58' E 004°05'2 3.4
2018-May-16 04:31N 51°58' E 004°02'2 3.4
2018-May-16 04:00N 51°58' E 004°05'1 1.8
2018-May-16 03:30N 51°59' E 004°05'1 2.3
2018-May-16 03:00N 51°58' E 004°03'0 0.0
2018-May-16 02:30N 51°58' E 004°03'0 0.0
2018-May-16 02:00N 51°58' E 004°03'0 0.0
2018-May-16 01:30N 51°58' E 004°03'0 0.0
2018-May-16 01:00N 51°58' E 004°03'0 0.0
2018-May-16 00:30N 51°58' E 004°03'0 0.0
2018-May-16 00:00N 51°58' E 004°03'0 0.0
2018-May-15 23:30N 51°58' E 004°03'0 0.0
2018-May-15 23:00N 51°58' E 004°03'0 0.0
2018-May-15 22:30N 51°58' E 004°03'0 0.0
2018-May-15 22:00N 51°58' E 004°03'0 0.0
2018-May-15 21:30N 51°58' E 004°03'0 0.0
2018-May-15 21:00N 51°58' E 004°03'0 0.0
2018-May-15 20:30N 51°58' E 004°03'0 0.0
2018-May-15 20:00N 51°58' E 004°03'0 0.0
2018-May-15 19:30N 51°58' E 004°03'0 0.0
2018-May-15 19:00N 51°58' E 004°03'0 0.0
2018-May-15 18:30N 51°58' E 004°03'0 0.0
2018-May-15 18:00N 51°58' E 004°03'0 0.0
2018-May-15 17:30N 51°58' E 004°03'0 0.0
2018-May-15 17:00N 51°58' E 004°03'0 0.0
2018-May-15 16:30N 51°58' E 004°03'0 0.0
2018-May-15 16:00N 51°58' E 004°03'0 0.0
2018-May-15 15:30N 51°58' E 004°03'0 0.0
2018-May-15 15:00N 51°58' E 004°03'0 0.0
2018-May-15 14:30N 51°58' E 004°03'0 0.0
2018-May-15 14:01N 51°58' E 004°03'0 0.0
2018-May-15 13:30N 51°58' E 004°03'0 0.0
2018-May-15 13:00N 51°58' E 004°03'2 4.2
2018-May-15 12:30N 51°58' E 004°06'4 7.3
2018-May-15 12:00N 51°56' E 004°11'1 1.4
2018-May-15 11:29N 51°56' E 004°12'0 0.1
2018-May-15 11:00N 51°56' E 004°12'0 0.2
2018-May-15 10:30N 51°56' E 004°12'3 5.5
2018-May-15 10:01N 51°57' E 004°09'4 7.2
2018-May-15 09:31N 51°59' E 004°03'2 3.1
2018-May-15 09:00N 51°58' E 004°03'0 0.2
2018-May-15 08:30N 51°58' E 004°03'1 1.3
2018-May-15 08:00N 51°58' E 004°04'1 2.1
2018-May-15 07:30N 51°59' E 004°04'1 2.3
2018-May-15 07:00N 51°58' E 004°03'0 0.0
2018-May-15 06:30N 51°58' E 004°03'0 0.0
2018-May-15 06:00N 51°58' E 004°03'0 0.0
2018-May-15 05:30N 51°58' E 004°03'0 0.0
2018-May-15 05:00N 51°58' E 004°03'0 0.0
2018-May-15 04:30N 51°58' E 004°03'0 0.0
2018-May-15 04:00N 51°58' E 004°03'0 0.0
2018-May-15 03:30N 51°58' E 004°03'0 0.0
2018-May-15 03:00N 51°58' E 004°03'0 0.0
2018-May-15 02:30N 51°58' E 004°03'0 0.0
2018-May-15 02:00N 51°58' E 004°03'0 0.0
2018-May-15 01:30N 51°58' E 004°03'0 0.0
2018-May-15 01:00N 51°58' E 004°03'0 0.0
2018-May-15 00:30N 51°58' E 004°03'0 0.0
2018-May-15 00:00N 51°58' E 004°03'0 0.0
2018-May-14 23:30N 51°58' E 004°03'0 0.0
2018-May-14 23:00N 51°58' E 004°03'0 0.0
2018-May-14 22:30N 51°58' E 004°03'0 0.0
2018-May-14 22:00N 51°58' E 004°03'0 0.0
2018-May-14 21:30N 51°58' E 004°03'0 0.0
2018-May-14 21:00N 51°58' E 004°03'0 0.0
2018-May-14 20:30N 51°58' E 004°03'0 0.0
2018-May-14 20:00N 51°58' E 004°03'0 0.0
2018-May-14 19:30N 51°58' E 004°03'0 0.0
2018-May-14 19:00N 51°58' E 004°03'0 0.0
2018-May-14 18:30N 51°58' E 004°03'0 0.0
2018-May-14 18:00N 51°58' E 004°03'0 0.0
2018-May-14 17:30N 51°58' E 004°03'  
Track history (hours):
 
Tides and Currents Weather Stations Pressure Air Temp Water Temp Dewpoint Dewpoint Depression Visibility Wind Speed Wind Dir Waves Ship Positions

Kliftrans

Last reported at 2018-May-24 17:30 UTC. Time now 2018-May-24 17:43 UTC.
Position N 51°57' E 004°05'.

Length 32 m; draft 6.4 m.

Type: Tug. MMSI: 244890607.

Date/timePositionNaut miles runAvg speedWind from/ knotsBaromVisibWave heightAir tempDewpointWater temp
2018-May-24 17:30N 51°57' E 004°05'0 0.0
2018-May-24 17:00N 51°57' E 004°05'0 0.0
2018-May-24 16:30N 51°57' E 004°05'0 0.2
2018-May-24 16:00N 51°57' E 004°05'3 5.8
2018-May-24 15:30N 51°57' E 003°60'0 0.4
2018-May-24 15:00N 51°57' E 003°60'0 0.0
2018-May-24 14:30N 51°57' E 003°60'0 1.0
2018-May-24 14:00N 51°57' E 004°00'1 1.7
2018-May-24 13:30N 51°58' E 003°60'2 0.4
2018-May-24 09:00N 51°58' E 004°03'0 0.1
2018-May-24 08:29N 51°58' E 004°03'0 0.0
2018-May-24 07:59N 51°58' E 004°03'0 0.0
2018-May-24 07:29N 51°58' E 004°03'0 0.0
2018-May-24 06:59N 51°58' E 004°03'0 0.0
2018-May-24 06:29N 51°58' E 004°03'0 0.0
2018-May-24 05:59N 51°58' E 004°03'0 0.0
2018-May-24 05:29N 51°58' E 004°03'0 0.0
2018-May-24 04:59N 51°58' E 004°03'0 0.0
2018-May-24 04:29N 51°58' E 004°03'0 0.0
2018-May-24 03:59N 51°58' E 004°03'0 0.0
2018-May-24 03:29N 51°58' E 004°03'0 0.0
2018-May-24 02:59N 51°58' E 004°03'0 0.0
2018-May-24 02:29N 51°58' E 004°03'0 0.0
2018-May-24 01:59N 51°58' E 004°03'0 0.0
2018-May-24 01:29N 51°58' E 004°03'0 0.0
2018-May-24 00:59N 51°58' E 004°03'0 0.0
2018-May-24 00:29N 51°58' E 004°03'0 0.0
2018-May-23 23:59N 51°58' E 004°03'0 0.0
2018-May-23 23:26N 51°58' E 004°03'0 0.0
2018-May-23 22:59N 51°58' E 004°03'0 0.0
2018-May-23 22:29N 51°58' E 004°03'0 0.0
2018-May-23 21:59N 51°58' E 004°03'0 0.0
2018-May-23 21:29N 51°58' E 004°03'0 0.0
2018-May-23 20:59N 51°58' E 004°03'0 0.0
2018-May-23 20:26N 51°58' E 004°03'0 0.0
2018-May-23 19:59N 51°58' E 004°03'0 0.0
2018-May-23 19:29N 51°58' E 004°03'0 0.0
2018-May-23 18:59N 51°58' E 004°03'0 0.0
2018-May-23 18:30N 51°58' E 004°03'0 0.0
2018-May-23 18:00N 51°58' E 004°03'0 0.0
2018-May-23 17:30N 51°58' E 004°03'0 0.0
2018-May-23 17:00N 51°58' E 004°03'0 0.0
2018-May-23 16:30N 51°58' E 004°03'0 0.0
2018-May-23 16:00N 51°58' E 004°03'0 0.0
2018-May-23 15:30N 51°58' E 004°03'1 3.0
2018-May-23 15:01N 51°58' E 004°05'1 1.0
2018-May-23 14:30N 51°58' E 004°04'0 0.0
2018-May-23 14:00N 51°58' E 004°04'1 1.7
2018-May-23 13:30N 51°58' E 004°06'0 0.0
2018-May-23 13:00N 51°58' E 004°06'0 0.0
2018-May-23 12:30N 51°58' E 004°06'0 0.0
2018-May-23 12:00N 51°58' E 004°06'0 0.0
2018-May-23 11:31N 51°58' E 004°06'0 0.0
2018-May-23 11:00N 51°58' E 004°06'0 0.0
2018-May-23 10:30N 51°58' E 004°06'0 0.0
2018-May-23 10:00N 51°58' E 004°06'0 0.0
2018-May-23 09:30N 51°58' E 004°06'0 0.0
2018-May-23 09:00N 51°58' E 004°06'0 0.0
2018-May-23 08:30N 51°58' E 004°06'1 2.0
2018-May-23 08:00N 51°57' E 004°05'0 0.0
2018-May-23 07:30N 51°57' E 004°05'0 0.0
2018-May-23 07:00N 51°57' E 004°05'0 0.0
2018-May-23 06:30N 51°57' E 004°05'0 0.0
2018-May-23 06:00N 51°57' E 004°05'0 0.0
2018-May-23 05:30N 51°57' E 004°05'0 0.0
2018-May-23 05:00N 51°57' E 004°05'0 0.0
2018-May-23 04:30N 51°57' E 004°05'0 0.0
2018-May-23 04:00N 51°57' E 004°05'0 0.0
2018-May-23 03:30N 51°57' E 004°05'0 0.0
2018-May-23 03:00N 51°57' E 004°05'0 0.0
2018-May-23 02:30N 51°57' E 004°05'0 0.0
2018-May-23 02:00N 51°57' E 004°05'0 0.0
2018-May-23 01:30N 51°57' E 004°05'0 0.0
2018-May-23 01:00N 51°57' E 004°05'0 0.0
2018-May-23 00:30N 51°57' E 004°05'0 0.0
2018-May-23 00:00N 51°57' E 004°05'0 0.0
2018-May-22 23:30N 51°57' E 004°05'0 0.0
2018-May-22 23:00N 51°57' E 004°05'0 0.0
2018-May-22 22:30N 51°57' E 004°05'0 0.0
2018-May-22 22:00N 51°57' E 004°05'0 0.0
2018-May-22 21:30N 51°57' E 004°05'0 0.0
2018-May-22 21:00N 51°57' E 004°05'0 0.0
2018-May-22 20:30N 51°57' E 004°05'0 0.0
2018-May-22 20:00N 51°57' E 004°05'0 0.0
2018-May-22 19:30N 51°57' E 004°05'0 0.6
2018-May-22 19:00N 51°57' E 004°05'2 3.3
2018-May-22 18:30N 51°58' E 004°02'2 3.7
2018-May-22 18:00N 51°57' E 004°05'0 0.0
2018-May-22 17:30N 51°57' E 004°05'0 0.0
2018-May-22 17:00N 51°57' E 004°05'0 0.0
2018-May-22 16:30N 51°57' E 004°05'0 0.0
2018-May-22 16:00N 51°57' E 004°05'0 0.0
2018-May-22 15:30N 51°57' E 004°05'0 0.0
2018-May-22 15:00N 51°57' E 004°05'0 0.0
2018-May-22 14:30N 51°57' E 004°05'0 0.0
2018-May-22 14:00N 51°57' E 004°05'0 0.0
2018-May-22 13:30N 51°57' E 004°05'0 0.0
2018-May-22 13:00N 51°57' E 004°05'0 0.0
2018-May-22 12:30N 51°57' E 004°05'0 0.0
2018-May-22 12:00N 51°57' E 004°05'0 0.0
2018-May-22 11:30N 51°57' E 004°05'0 0.0
2018-May-22 11:00N 51°57' E 004°05'0 0.0
2018-May-22 10:30N 51°57' E 004°05'0 0.0
2018-May-22 10:00N 51°57' E 004°05'0 0.0
2018-May-22 09:30N 51°57' E 004°05'2 3.6
2018-May-22 09:00N 51°58' E 004°02'0 0.6
2018-May-22 08:31N 51°58' E 004°02'2 4.5
2018-May-22 07:59N 51°58' E 004°06'0 0.0
2018-May-22 07:30N 51°58' E 004°06'0 0.0
2018-May-22 07:00N 51°58' E 004°06'0 0.0
2018-May-22 06:30N 51°58' E 004°06'0 0.0
2018-May-22 06:00N 51°58' E 004°06'0 0.0
2018-May-22 05:30N 51°58' E 004°06'0 0.0
2018-May-22 05:00N 51°58' E 004°06'0 0.0
2018-May-22 04:30N 51°58' E 004°06'0 0.0
2018-May-22 04:00N 51°58' E 004°06'0 0.0
2018-May-22 03:30N 51°58' E 004°06'0 0.0
2018-May-22 03:00N 51°58' E 004°06'0 0.0
2018-May-22 02:30N 51°58' E 004°06'0 0.0
2018-May-22 02:00N 51°58' E 004°06'0 0.0
2018-May-22 01:30N 51°58' E 004°06'0 0.0
2018-May-22 01:00N 51°58' E 004°06'0 0.0
2018-May-22 00:30N 51°58' E 004°06'0 0.0
2018-May-22 00:00N 51°58' E 004°06'0 0.0
2018-May-21 22:30N 51°58' E 004°06'0 0.0
2018-May-21 22:00N 51°58' E 004°06'3 5.1
2018-May-21 21:30N 51°58' E 004°02'3 5.0
2018-May-21 21:00N 51°58' E 004°06'0 0.1
2018-May-21 20:29N 51°58' E 004°06'0 0.0
2018-May-21 19:56N 51°58' E 004°06'0 0.0
2018-May-21 19:29N 51°58' E 004°06'0 0.0
2018-May-21 18:59N 51°58' E 004°06'0 0.0
2018-May-21 18:26N 51°58' E 004°06'0 0.0
2018-May-21 17:59N 51°58' E 004°06'1 1.3
2018-May-21 17:30N 51°58' E 004°05'1 2.0
2018-May-21 17:00N 51°58' E 004°03'1 2.7
2018-May-21 16:31N 51°59' E 004°04'1 2.5
2018-May-21 15:57N 51°58' E 004°06'0 0.0
2018-May-21 15:30N 51°58' E 004°06'0 0.0
2018-May-21 15:00N 51°58' E 004°06'0 0.0
2018-May-21 14:30N 51°58' E 004°06'0 0.0
2018-May-21 14:00N 51°58' E 004°06'0 0.0
2018-May-21 13:30N 51°58' E 004°06'0 0.0
2018-May-21 13:00N 51°58' E 004°06'0 0.0
2018-May-21 12:30N 51°58' E 004°06'0 0.0
2018-May-21 12:00N 51°58' E 004°06'0 0.0
2018-May-21 11:30N 51°58' E 004°06'0 0.0
2018-May-21 11:00N 51°58' E 004°06'0 0.0
2018-May-21 10:30N 51°58' E 004°06'0 0.0
2018-May-21 10:00N 51°58' E 004°06'0 0.0
2018-May-21 09:30N 51°58' E 004°06'0 0.0
2018-May-21 09:00N 51°58' E 004°06'0 0.0
2018-May-21 08:30N 51°58' E 004°06'0 0.0
2018-May-21 08:00N 51°58' E 004°06'0 0.0
2018-May-21 07:30N 51°58' E 004°06'0 0.0
2018-May-21 07:00N 51°58' E 004°06'0 0.0
2018-May-21 06:30N 51°58' E 004°06'0 0.0
2018-May-21 06:00N 51°58' E 004°06'0 0.0
2018-May-21 05:30N 51°58' E 004°06'0 0.0
2018-May-21 05:00N 51°58' E 004°06'0 0.0
2018-May-21 04:30N 51°58' E 004°06'0 0.0
2018-May-21 04:00N 51°58' E 004°06'0 0.0
2018-May-21 03:30N 51°58' E 004°06'0 0.0
2018-May-21 03:00N 51°58' E 004°06'1 2.9
2018-May-21 02:30N 51°58' E 004°03'1 2.1
2018-May-21 02:00N 51°58' E 004°02'2 4.1
2018-May-21 01:30N 51°58' E 004°05'0 0.8
2018-May-21 01:00N 51°58' E 004°05'1 1.3
2018-May-21 00:30N 51°58' E 004°06'0 0.0
2018-May-21 00:00N 51°58' E 004°06'3 5.5
2018-May-20 23:30N 51°57' E 004°10'2 4.8
2018-May-20 23:00N 51°55' E 004°13'0 0.0
2018-May-20 22:30N 51°55' E 004°13'0 0.0
2018-May-20 22:00N 51°55' E 004°13'1 1.2
2018-May-20 21:30N 51°56' E 004°12'3 6.8
2018-May-20 21:00N 51°58' E 004°08'3 5.3
2018-May-20 20:30N 51°58' E 004°03'2 4.5
2018-May-20 20:00N 51°58' E 003°60'1 1.4
2018-May-20 19:30N 51°58' E 004°00'0 0.4
2018-May-20 19:00N 51°57' E 004°00'0 0.0
2018-May-20 18:30N 51°57' E 004°00'0 0.0
2018-May-20 18:00N 51°57' E 004°00'0 0.6
2018-May-20 17:30N 51°57' E 004°00'1 2.9
2018-May-20 17:00N 51°58' E 004°01'2 4.5
2018-May-20 16:30N 51°58' E 004°05'0 0.9
2018-May-20 16:00N 51°58' E 004°04'0 0.1
2018-May-20 15:30N 51°58' E 004°04'0 0.8
2018-May-20 15:00N 51°58' E 004°05'1 2.7
2018-May-20 14:30N 51°59' E 004°04'0 1.0
2018-May-20 14:00N 51°59' E 004°04'1 1.8
2018-May-20 13:24N 51°58' E 004°06'0 0.0
2018-May-20 13:00N 51°58' E 004°06'0 0.0
2018-May-20 12:30N 51°58' E 004°06'0 0.0
2018-May-20 12:00N 51°58' E 004°06'0 0.0
2018-May-20 11:27N 51°58' E 004°06'0 0.0
2018-May-20 10:57N 51°58' E 004°06'0 0.0
2018-May-20 10:27N 51°58' E 004°06'0 0.0
2018-May-20 10:00N 51°58' E 004°06'0 0.0
2018-May-20 09:30N 51°58' E 004°06'0 0.0
2018-May-20 09:00N 51°58' E 004°06'0 0.0
2018-May-20 08:27N 51°58' E 004°06'0 0.0
2018-May-20 08:00N 51°58' E 004°06'0 0.0
2018-May-20 07:30N 51°58' E 004°06'0 0.0
2018-May-20 07:00N 51°58' E 004°06'0 0.0
2018-May-20 06:27N 51°58' E 004°06'0 0.0
2018-May-20 06:00N 51°58' E 004°06'0 0.0
2018-May-20 05:30N 51°58' E 004°06'0 0.0
2018-May-20 05:00N 51°58' E 004°06'0 0.0
2018-May-20 04:30N 51°58' E 004°06'0 0.0
2018-May-20 04:00N 51°58' E 004°06'0 0.0
2018-May-20 03:30N 51°58' E 004°06'0 0.0
2018-May-20 03:00N 51°58' E 004°06'0 0.0
2018-May-20 02:27N 51°58' E 004°06'0 0.0
2018-May-20 02:00N 51°58' E 004°06'0 0.0
2018-May-20 01:30N 51°58' E 004°06'0 0.0
2018-May-20 01:00N 51°58' E 004°06'0 0.0
2018-May-20 00:30N 51°58' E 004°06'0 0.0
2018-May-20 00:00N 51°58' E 004°06'0 0.0
2018-May-19 23:30N 51°58' E 004°06'0 0.0
2018-May-19 23:00N 51°58' E 004°06'0 0.0
2018-May-19 22:30N 51°58' E 004°06'0 0.0
2018-May-19 21:58N 51°58' E 004°06'2 3.5
2018-May-19 21:31N 51°58' E 004°03'0 0.1
2018-May-19 21:00N 51°58' E 004°03'0 0.0
2018-May-19 20:30N 51°58' E 004°03'3 5.2
2018-May-19 20:00N 51°58' E 004°07'4 8.4
2018-May-19 19:30N 51°55' E 004°13'1 1.0
2018-May-19 19:01N 51°55' E 004°13'1 2.5
2018-May-19 18:30N 51°56' E 004°12'3 5.2
2018-May-19 18:01N 51°57' E 004°08'2 3.8
2018-May-19 17:25N 51°57' E 004°05'0 0.0
2018-May-19 16:58N 51°57' E 004°05'0 0.0
2018-May-19 16:28N 51°57' E 004°05'0 0.0
2018-May-19 15:58N 51°57' E 004°05'0 0.0
2018-May-19 15:28N 51°57' E 004°05'0 0.0
2018-May-19 14:58N 51°57' E 004°05'0 0.0
2018-May-19 14:28N 51°57' E 004°05'0 0.0
2018-May-19 13:58N 51°57' E 004°05'0 0.0
2018-May-19 13:25N 51°57' E 004°05'0 0.0
2018-May-19 12:58N 51°57' E 004°05'0 0.0
2018-May-19 12:28N 51°57' E 004°05'0 0.0
2018-May-19 11:58N 51°57' E 004°05'0 0.0
2018-May-19 11:28N 51°57' E 004°05'0 0.0
2018-May-19 10:58N 51°57' E 004°05'0 0.0
2018-May-19 10:28N 51°57' E 004°05'0 0.0
2018-May-19 09:58N 51°57' E 004°05'0 0.0
2018-May-19 09:28N 51°57' E 004°05'0 0.0
2018-May-19 08:58N 51°57' E 004°05'0 0.0
2018-May-19 08:28N 51°57' E 004°05'0 0.0
2018-May-19 07:58N 51°57' E 004°05'0 0.0
2018-May-19 07:28N 51°57' E 004°05'0 0.0
2018-May-19 06:58N 51°57' E 004°05'0 0.0
2018-May-19 06:28N 51°57' E 004°05'0 0.0
2018-May-19 05:55N 51°57' E 004°05'0 0.0
2018-May-19 05:28N 51°57' E 004°05'0 0.0
2018-May-19 04:55N 51°57' E 004°05'0 0.0
2018-May-19 04:28N 51°57' E 004°05'0 0.0
2018-May-19 03:58N 51°57' E 004°05'0 0.0
2018-May-19 03:28N 51°57' E 004°05'0 0.0
2018-May-19 02:58N 51°57' E 004°05'0 0.0
2018-May-19 02:25N 51°57' E 004°05'0 0.0
2018-May-19 01:58N 51°57' E 004°05'0 0.0
2018-May-19 01:25N 51°57' E 004°05'0 0.0
2018-May-19 00:58N 51°57' E 004°05'0 0.0
2018-May-19 00:28N 51°57' E 004°05'0 0.0
2018-May-18 23:58N 51°57' E 004°05'0 0.0
2018-May-18 23:28N 51°57' E 004°05'0 0.3
2018-May-18 23:00N 51°57' E 004°05'1 2.7
2018-May-18 22:30N 51°58' E 004°06'0 0.1
2018-May-18 22:00N 51°58' E 004°06'0 0.4
2018-May-18 21:30N 51°58' E 004°06'1 2.4
2018-May-18 21:00N 51°59' E 004°04'1 2.1
2018-May-18 20:27N 51°58' E 004°06'0 0.0
2018-May-18 20:00N 51°58' E 004°06'0 0.0
2018-May-18 19:30N 51°58' E 004°06'0 0.0
2018-May-18 19:00N 51°58' E 004°06'0 0.0
2018-May-18 18:30N 51°58' E 004°06'0 0.0
2018-May-18 18:00N 51°58' E 004°06'0 0.0
2018-May-18 17:30N 51°58' E 004°06'0 0.0
2018-May-18 17:00N 51°58' E 004°06'0 0.0
2018-May-18 16:30N 51°58' E 004°06'0 0.0
2018-May-18 16:00N 51°58' E 004°06'0 0.0
2018-May-18 15:27N 51°58' E 004°06'0 0.0
2018-May-18 15:00N 51°58' E 004°06'0 0.0
2018-May-18 14:30N 51°58' E 004°06'0 0.0
2018-May-18 13:54N 51°58' E 004°06'0 0.0
2018-May-18 13:30N 51°58' E 004°06'0 0.0
2018-May-18 13:00N 51°58' E 004°06'0 0.0
2018-May-18 12:27N 51°58' E 004°06'0 0.0
2018-May-18 12:00N 51°58' E 004°06'0 0.0
2018-May-18 11:30N 51°58' E 004°06'0 0.0
2018-May-18 11:00N 51°58' E 004°06'0 0.0
2018-May-18 10:30N 51°58' E 004°06'0 0.0
2018-May-18 09:48N 51°58' E 004°06'0 0.0
2018-May-18 09:30N 51°58' E 004°06'0 0.0
2018-May-18 09:00N 51°58' E 004°06'0 0.0
2018-May-18 08:27N 51°58' E 004°06'0 0.0
2018-May-18 08:00N 51°58' E 004°06'2 3.2
2018-May-18 07:30N 51°58' E 004°03'2 4.0
2018-May-18 07:00N 51°57' E 004°00'0 0.2
2018-May-18 06:30N 51°57' E 004°00'0 0.0
2018-May-18 06:00N 51°57' E 004°00'0 0.5
2018-May-18 05:30N 51°57' E 003°60'0 0.0
2018-May-18 05:00N 51°57' E 003°60'0 0.0
2018-May-18 04:30N 51°57' E 003°60'0 0.8
2018-May-18 04:00N 51°57' E 003°59'1 2.5
2018-May-18 03:30N 51°58' E 003°60'3 6.1
2018-May-18 03:01N 51°58' E 004°05'1 1.1
2018-May-18 02:30N 51°58' E 004°06'0 0.0
2018-May-18 01:59N 51°58' E 004°06'0 0.0
2018-May-18 01:26N 51°58' E 004°06'0 0.0
2018-May-18 00:59N 51°58' E 004°06'0 0.0
2018-May-18 00:26N 51°58' E 004°06'0 0.0
2018-May-17 23:59N 51°58' E 004°06'0 0.0
2018-May-17 23:29N 51°58' E 004°06'0 0.0
2018-May-17 22:59N 51°58' E 004°06'0 0.0
2018-May-17 22:29N 51°58' E 004°06'0 0.0
2018-May-17 21:59N 51°58' E 004°06'0 0.0
2018-May-17 21:29N 51°58' E 004°06'0 0.0
2018-May-17 20:59N 51°58' E 004°06'0 0.0
2018-May-17 20:29N 51°58' E 004°06'0 0.0
2018-May-17 19:59N 51°58' E 004°06'0 0.0
2018-May-17 19:29N 51°58' E 004°06'0 0.0
2018-May-17 18:59N 51°58' E 004°06'0 0.0
2018-May-17 18:29N 51°58' E 004°06'0 0.0
2018-May-17 17:59N 51°58' E 004°06'0 0.0
2018-May-17 17:29N 51°58' E 004°06'0 0.0
2018-May-17 16:59N 51°58' E 004°06'0 0.0
2018-May-17 16:29N 51°58' E 004°06'1 3.0
2018-May-17 16:01N 51°57' E 004°04'1 1.7
2018-May-17 15:30N 51°57' E 004°03'1 1.3
2018-May-17 15:00N 51°57' E 004°04'2 3.1
2018-May-17 14:30N 51°58' E 004°06'0 0.0
2018-May-17 14:01N 51°58' E 004°06'0 0.0
2018-May-17 13:31N 51°58' E 004°06'0 0.0
2018-May-17 13:00N 51°58' E 004°06'0 0.0
2018-May-17 12:31N 51°58' E 004°06'0 0.0
2018-May-17 12:00N 51°58' E 004°06'0 0.0
2018-May-17 11:30N 51°58' E 004°06'0 0.0
2018-May-17 11:00N 51°58' E 004°06'0 0.0
2018-May-17 10:30N 51°58' E 004°06'2 4.9
2018-May-17 10:01N 51°56' E 004°03'0 0.0
2018-May-17 09:30N 51°56' E 004°03'0 0.0
2018-May-17 09:01N 51°56' E 004°03'0 0.4
2018-May-17 08:31N 51°56' E 004°03'1 2.8
2018-May-17 08:01N 51°57' E 004°05'1 1.8
2018-May-17 07:29N 51°58' E 004°06'0 0.0
2018-May-17 06:59N 51°58' E 004°06'0 0.0
2018-May-17 06:29N 51°58' E 004°06'0 0.0
2018-May-17 05:59N 51°58' E 004°06'0 0.0
2018-May-17 05:29N 51°58' E 004°06'0 0.0
2018-May-17 04:59N 51°58' E 004°06'0 0.0
2018-May-17 04:29N 51°58' E 004°06'0 0.0
2018-May-17 03:57N 51°58' E 004°06'1 2.6
2018-May-17 03:30N 51°58' E 004°08'0 0.6
2018-May-17 03:01N 51°58' E 004°08'1 2.3
2018-May-17 02:29N 51°58' E 004°06'0 0.0
2018-May-17 01:59N 51°58' E 004°06'0 0.0
2018-May-17 01:29N 51°58' E 004°06'0 0.0
2018-May-17 00:59N 51°58' E 004°06'0 0.0
2018-May-17 00:29N 51°58' E 004°06'0 0.0
2018-May-16 23:59N 51°58' E 004°06'0 0.0
2018-May-16 23:29N 51°58' E 004°06'0 0.0
2018-May-16 22:59N 51°58' E 004°06'0 0.0
2018-May-16 22:26N 51°58' E 004°06'0 0.0
2018-May-16 21:59N 51°58' E 004°06'0 0.0
2018-May-16 21:29N 51°58' E 004°06'0 0.0
2018-May-16 20:56N 51°58' E 004°06'0 0.0
2018-May-16 20:29N 51°58' E 004°06'0 0.0
2018-May-16 19:59N 51°58' E 004°06'0 0.0
2018-May-16 19:30N 51°58' E 004°06'0 0.0
2018-May-16 19:00N 51°58' E 004°06'0 0.0
2018-May-16 18:30N 51°58' E 004°06'0 0.0
2018-May-16 18:01N 51°58' E 004°06'0 0.0
2018-May-16 17:30N 51°58' E 004°06'0 0.0
2018-May-16 17:00N 51°58' E 004°06'0 0.0
2018-May-16 16:30N 51°58' E 004°06'0 0.0
2018-May-16 16:00N 51°58' E 004°06'0 0.0
2018-May-16 15:31N 51°58' E 004°06'0 0.0
2018-May-16 15:00N 51°58' E 004°06'0 0.0
2018-May-16 14:30N 51°58' E 004°06'0 0.0
2018-May-16 14:00N 51°58' E 004°06'0 0.0
2018-May-16 13:30N 51°58' E 004°06'0 0.0
2018-May-16 13:00N 51°58' E 004°06'0 0.0
2018-May-16 12:30N 51°58' E 004°06'0 0.0
2018-May-16 11:59N 51°58' E 004°06'0 0.0
2018-May-16 11:30N 51°58' E 004°06'0 0.0
2018-May-16 11:00N 51°58' E 004°06'0 0.4
2018-May-16 10:31N 51°58' E 004°05'1 2.0
2018-May-16 10:00N 51°57' E 004°05'2 3.0
2018-May-16 09:31N 51°57' E 004°02'2 4.2
2018-May-16 09:00N 51°58' E 004°06'0 0.0
2018-May-16 08:30N 51°58' E 004°06'2 4.0
2018-May-16 08:00N 51°58' E 004°03'0 0.9
2018-May-16 07:30N 51°58' E 004°03'1 2.0
2018-May-16 07:00N 51°59' E 004°03'2 3.7
2018-May-16 06:30N 51°58' E 004°06'0 0.0
2018-May-16 06:01N 51°58' E 004°06'0 0.0
2018-May-16 05:30N 51°58' E 004°06'0 0.8
2018-May-16 05:00N 51°58' E 004°05'2 3.4
2018-May-16 04:31N 51°58' E 004°02'2 3.4
2018-May-16 04:00N 51°58' E 004°05'1 1.8
2018-May-16 03:30N 51°59' E 004°05'1 2.3
2018-May-16 03:00N 51°58' E 004°03'0 0.0
2018-May-16 02:30N 51°58' E 004°03'0 0.0
2018-May-16 02:00N 51°58' E 004°03'0 0.0
2018-May-16 01:30N 51°58' E 004°03'0 0.0
2018-May-16 01:00N 51°58' E 004°03'0 0.0
2018-May-16 00:30N 51°58' E 004°03'0 0.0
2018-May-16 00:00N 51°58' E 004°03'0 0.0
2018-May-15 23:30N 51°58' E 004°03'0 0.0
2018-May-15 23:00N 51°58' E 004°03'0 0.0
2018-May-15 22:30N 51°58' E 004°03'0 0.0
2018-May-15 22:00N 51°58' E 004°03'0 0.0
2018-May-15 21:30N 51°58' E 004°03'0 0.0
2018-May-15 21:00N 51°58' E 004°03'0 0.0
2018-May-15 20:30N 51°58' E 004°03'0 0.0
2018-May-15 20:00N 51°58' E 004°03'0 0.0
2018-May-15 19:30N 51°58' E 004°03'0 0.0
2018-May-15 19:00N 51°58' E 004°03'0 0.0
2018-May-15 18:30N 51°58' E 004°03'0 0.0
2018-May-15 18:00N 51°58' E 004°03'0 0.0
2018-May-15 17:30N 51°58' E 004°03'0 0.0
2018-May-15 17:00N 51°58' E 004°03'0 0.0
2018-May-15 16:30N 51°58' E 004°03'0 0.0
2018-May-15 16:00N 51°58' E 004°03'0 0.0
2018-May-15 15:30N 51°58' E 004°03'0 0.0
2018-May-15 15:00N 51°58' E 004°03'0 0.0
2018-May-15 14:30N 51°58' E 004°03'0 0.0
2018-May-15 14:01N 51°58' E 004°03'0 0.0
2018-May-15 13:30N 51°58' E 004°03'0 0.0
2018-May-15 13:00N 51°58' E 004°03'2 4.2
2018-May-15 12:30N 51°58' E 004°06'4 7.3
2018-May-15 12:00N 51°56' E 004°11'1 1.4
2018-May-15 11:29N 51°56' E 004°12'0 0.1
2018-May-15 11:00N 51°56' E 004°12'0 0.2
2018-May-15 10:30N 51°56' E 004°12'3 5.5
2018-May-15 10:01N 51°57' E 004°09'4 7.2
2018-May-15 09:31N 51°59' E 004°03'2 3.1
2018-May-15 09:00N 51°58' E 004°03'0 0.2
2018-May-15 08:30N 51°58' E 004°03'1 1.3
2018-May-15 08:00N 51°58' E 004°04'1 2.1
2018-May-15 07:30N 51°59' E 004°04'1 2.3
2018-May-15 07:00N 51°58' E 004°03'0 0.0
2018-May-15 06:30N 51°58' E 004°03'0 0.0
2018-May-15 06:00N 51°58' E 004°03'0 0.0
2018-May-15 05:30N 51°58' E 004°03'0 0.0
2018-May-15 05:00N 51°58' E 004°03'0 0.0
2018-May-15 04:30N 51°58' E 004°03'0 0.0
2018-May-15 04:00N 51°58' E 004°03'0 0.0
2018-May-15 03:30N 51°58' E 004°03'0 0.0
2018-May-15 03:00N 51°58' E 004°03'0 0.0
2018-May-15 02:30N 51°58' E 004°03'0 0.0
2018-May-15 02:00N 51°58' E 004°03'0 0.0
2018-May-15 01:30N 51°58' E 004°03'0 0.0
2018-May-15 01:00N 51°58' E 004°03'0 0.0
2018-May-15 00:30N 51°58' E 004°03'0 0.0
2018-May-15 00:00N 51°58' E 004°03'0 0.0
2018-May-14 23:30N 51°58' E 004°03'0 0.0
2018-May-14 23:00N 51°58' E 004°03'0 0.0
2018-May-14 22:30N 51°58' E 004°03'0 0.0
2018-May-14 22:00N 51°58' E 004°03'0 0.0
2018-May-14 21:30N 51°58' E 004°03'0 0.0
2018-May-14 21:00N 51°58' E 004°03'0 0.0
2018-May-14 20:30N 51°58' E 004°03'0 0.0
2018-May-14 20:00N 51°58' E 004°03'0 0.0
2018-May-14 19:30N 51°58' E 004°03'0 0.0
2018-May-14 19:00N 51°58' E 004°03'0 0.0
2018-May-14 18:30N 51°58' E 004°03'0 0.0
2018-May-14 18:00N 51°58' E 004°03'0 0.0
2018-May-14 17:30N 51°58' E 004°03'  

Dump ship's entire track history